Time;durP1;ratioP1;P1;durP2;ratioP2;P2;SDS_P1;SDS_P2;PMS_P1;PMS_P2;Temp;Humidity;BMP_temperature;BMP_pressure;BME280_temperature;BME280_humidity;BME280_pressure;Samples;Min_cycle;Max_cycle;Signal;HPM_P1;HPM_P2
2021/04/05 00:01:42;;;;;;;13.60;8.27;;;;;;;2.55;58.28;98504.52;114346;1193;64429;-83
2021/04/05 00:04:09;;;;;;;20.60;8.00;;;;;;;2.57;58.12;98500.01;114309;1193;64395;-81
2021/04/05 00:06:36;;;;;;;13.75;7.45;;;;;;;2.61;58.11;98498.09;114342;1192;64812;-85
2021/04/05 00:09:06;;;;;;;16.67;7.97;;;;;;;2.70;57.98;98492.36;114376;1193;64474;-82
2021/04/05 00:11:33;;;;;;;13.37;7.37;;;;;;;2.74;58.25;98490.44;114324;1193;64215;-81
2021/04/05 00:14:00;;;;;;;18.67;7.50;;;;;;;2.75;58.07;98486.86;114306;1193;64445;-83
2021/04/05 00:16:27;;;;;;;15.30;7.23;;;;;;;2.74;58.14;98482.53;114321;1193;64289;-84
2021/04/05 00:18:54;;;;;;;13.85;7.10;;;;;;;2.73;57.94;98481.64;114361;1193;64378;-81
2021/04/05 00:21:24;;;;;;;11.73;7.50;;;;;;;2.71;58.25;98476.45;114329;1193;64382;-84
2021/04/05 00:23:52;;;;;;;15.65;7.40;;;;;;;2.66;58.10;98467.91;114319;1193;64455;-84
2021/04/05 00:26:20;;;;;;;14.73;7.93;;;;;;;2.68;58.09;98457.31;114299;1193;64375;-81
2021/04/05 00:28:49;;;;;;;15.77;6.93;;;;;;;2.65;58.04;98452.17;114383;1193;64398;-85
2021/04/05 00:31:16;;;;;;;14.80;8.27;;;;;;;2.58;57.69;98451.63;114244;1193;64471;-83
2021/04/05 00:33:43;;;;;;;16.35;7.45;;;;;;;2.51;58.17;98442.32;114373;1192;64442;-83
2021/04/05 00:36:10;;;;;;;14.15;8.35;;;;;;;2.46;58.25;98430.30;114183;1193;64327;-82
2021/04/05 00:38:37;;;;;;;16.57;8.43;;;;;;;2.40;57.84;98426.17;114321;1193;64359;-84
2021/04/05 00:41:10;;;;;;;22.80;10.37;;;;;;;2.41;58.53;98418.19;114287;1193;64407;-81
2021/04/05 00:43:39;;;;;;;21.85;10.20;;;;;;;2.44;58.34;98411.93;114359;1193;64388;-84
2021/04/05 00:46:07;;;;;;;22.80;10.47;;;;;;;2.41;58.33;98402.38;114315;1193;64497;-82
2021/04/05 00:48:36;;;;;;;22.53;10.10;;;;;;;2.44;58.39;98401.39;114375;1193;64458;-81
2021/04/05 00:51:14;;;;;;;19.13;9.20;;;;;;;2.38;58.05;98386.73;114317;1193;64473;-85
2021/04/05 00:53:44;;;;;;;13.43;8.27;;;;;;;2.31;57.87;98381.84;114373;1193;64420;-81
2021/04/05 00:56:16;;;;;;;20.23;8.03;;;;;;;2.22;58.49;98377.02;114313;1193;64378;-82
2021/04/05 00:58:43;;;;;;;17.20;8.40;;;;;;;2.09;58.19;98367.08;114360;1193;64369;-83
2021/04/05 01:01:13;;;;;;;18.10;8.50;;;;;;;2.01;58.22;98371.02;114336;1193;64359;-83
2021/04/05 01:03:43;;;;;;;18.90;8.63;;;;;;;1.96;58.09;98359.84;114397;1192;64336;-83
2021/04/05 01:06:15;;;;;;;16.55;7.90;;;;;;;1.90;58.27;98356.58;114407;1192;64398;-82
2021/04/05 01:08:42;;;;;;;20.13;9.67;;;;;;;1.83;58.29;98343.78;114306;1192;64401;-81
2021/04/05 01:11:14;;;;;;;20.50;9.85;;;;;;;1.77;58.31;98337.03;114287;1193;64401;-82
2021/04/05 01:13:42;;;;;;;17.70;9.87;;;;;;;1.72;58.29;98331.16;114339;1193;64845;-83
2021/04/05 01:16:09;;;;;;;18.30;9.17;;;;;;;1.64;58.45;98322.75;114335;1193;64330;-80
2021/04/05 01:18:37;;;;;;;16.30;9.43;;;;;;;1.55;58.41;98325.84;114357;1193;64372;-82
2021/04/05 01:21:04;;;;;;;18.15;9.65;;;;;;;1.49;58.45;98310.34;114278;1193;64327;-85
2021/04/05 01:23:31;;;;;;;18.83;9.60;;;;;;;1.44;59.16;98305.28;114297;1193;64493;-83
2021/04/05 01:25:58;;;;;;;18.57;9.47;;;;;;;1.51;58.82;98300.58;114338;1193;64446;-82
2021/04/05 01:28:25;;;;;;;26.37;9.90;;;;;;;1.55;59.25;98283.73;114293;1193;64359;-83
2021/04/05 01:30:55;;;;;;;20.10;9.50;;;;;;;1.62;59.32;98275.46;114299;1193;64423;-82
2021/04/05 01:33:30;;;;;;;17.50;8.90;;;;;;;1.71;58.54;98279.42;114346;1193;64391;-83
2021/04/05 01:35:59;;;;;;;16.00;9.80;;;;;;;1.73;58.99;98276.73;114297;1193;64371;-83
2021/04/05 01:38:31;;;;;;;21.50;10.80;;;;;;;1.71;58.61;98262.77;114321;1193;64468;-81
2021/04/05 01:41:13;;;;;;;18.70;10.55;;;;;;;1.60;58.87;98258.91;114288;1193;64407;-83
2021/04/05 01:43:41;;;;;;;21.90;10.95;;;;;;;1.50;58.65;98260.27;114345;1193;64347;-81
2021/04/05 01:46:11;;;;;;;24.85;11.40;;;;;;;1.48;58.90;98254.23;114354;1193;64835;-80
2021/04/05 01:48:39;;;;;;;22.80;10.45;;;;;;;1.50;58.94;98239.22;114334;1193;66018;-80
2021/04/05 01:51:08;;;;;;;19.50;9.70;;;;;;;1.58;58.77;98234.42;114368;1193;64349;-83
2021/04/05 01:53:36;;;;;;;16.60;8.90;;;;;;;1.64;59.72;98235.91;114365;1193;64461;-82
2021/04/05 01:56:05;;;;;;;18.35;8.20;;;;;;;1.77;59.37;98231.73;114366;1193;64375;-80
2021/04/05 01:58:35;;;;;;;17.45;9.00;;;;;;;1.88;59.72;98220.68;114355;1193;64432;-81
2021/04/05 02:01:10;;;;;;;14.57;7.90;;;;;;;1.97;59.12;98214.09;114327;1193;64452;-83
2021/04/05 02:03:39;;;;;;;15.95;7.70;;;;;;;2.07;59.91;98218.81;114326;1192;64305;-83
2021/04/05 02:06:16;;;;;;;17.50;7.60;;;;;;;2.18;59.51;98212.16;114313;1193;64496;-80
2021/04/05 02:08:44;;;;;;;13.80;7.35;;;;;;;2.18;59.30;98191.09;114366;1193;64378;-82
2021/04/05 02:11:17;;;;;;;15.07;8.33;;;;;;;2.14;59.06;98191.23;114310;1193;64398;-82
2021/04/05 02:13:46;;;;;;;17.20;7.90;;;;;;;2.12;59.08;98177.30;114355;1193;64305;-82
2021/04/05 02:16:15;;;;;;;12.40;7.73;;;;;;;2.09;58.61;98176.59;114347;1193;64445;-83
2021/04/05 02:18:43;;;;;;;13.90;7.00;;;;;;;2.04;58.85;98163.69;114349;1193;64443;-85
2021/04/05 02:21:12;;;;;;;13.85;6.75;;;;;;;2.03;58.98;98163.74;114308;1193;64401;-81
2021/04/05 02:23:40;;;;;;;14.90;7.57;;;;;;;2.04;58.69;98166.32;114327;1193;64426;-81
2021/04/05 02:26:12;;;;;;;11.95;6.65;;;;;;;2.13;59.40;98164.98;114364;1193;64359;-82
2021/04/05 02:28:43;;;;;;;13.10;7.00;;;;;;;2.28;59.03;98158.89;114273;1193;64449;-85
2021/04/05 02:31:11;;;;;;;9.10;6.40;;;;;;;2.39;58.89;98153.91;114342;1193;64478;-81
2021/04/05 02:33:44;;;;;;;11.87;6.13;;;;;;;2.47;59.03;98150.86;114427;1193;64695;-80
2021/04/05 02:36:13;;;;;;;11.55;6.70;;;;;;;2.57;58.66;98135.42;114303;1193;64372;-82
2021/04/05 02:38:45;;;;;;;10.50;5.80;;;;;;;2.59;58.95;98133.54;114355;1193;64441;-82
2021/04/05 02:41:14;;;;;;;11.75;6.70;;;;;;;2.58;58.74;98121.30;114329;1193;64286;-82
2021/04/05 02:43:42;;;;;;;10.27;6.27;;;;;;;2.55;58.67;98117.06;114309;1193;64448;-82
2021/04/05 02:46:14;;;;;;;15.87;7.10;;;;;;;2.54;58.66;98103.94;114182;1193;64451;-81
2021/04/05 02:48:44;;;;;;;14.07;6.77;;;;;;;2.48;58.99;98094.58;114355;1193;64363;-82
2021/04/05 02:51:11;;;;;;;15.20;8.60;;;;;;;2.44;58.63;98088.64;114293;1193;64818;-84
2021/04/05 02:53:44;;;;;;;11.85;6.25;;;;;;;2.41;58.95;98078.26;114337;1193;64320;-81
2021/04/05 02:56:12;;;;;;;11.60;6.60;;;;;;;2.42;58.71;98072.08;114325;1193;65055;-84
2021/04/05 02:58:42;;;;;;;12.35;6.50;;;;;;;2.42;58.81;98065.96;114362;1193;64381;-80
2021/04/05 03:01:10;;;;;;;10.25;6.10;;;;;;;2.39;59.00;98059.05;114363;1193;64362;-82
2021/04/05 03:03:43;;;;;;;12.27;6.30;;;;;;;2.36;59.15;98053.97;114399;1193;64397;-81
2021/04/05 03:06:22;;;;;;;13.45;6.90;;;;;;;2.36;58.89;98055.75;114321;1193;64388;-81
2021/04/05 03:08:49;;;;;;;14.30;8.20;;;;;;;2.36;58.79;98050.48;114420;1193;64395;-81
2021/04/05 03:11:18;;;;;;;12.00;7.05;;;;;;;2.31;59.02;98044.61;114346;1193;64413;-82
2021/04/05 03:13:46;;;;;;;15.95;7.40;;;;;;;2.20;58.61;98039.92;114352;1193;64672;-80
2021/04/05 03:16:24;;;;;;;13.13;7.20;;;;;;;2.04;58.61;98028.53;114332;1193;64441;-82
2021/04/05 03:18:53;;;;;;;14.97;7.77;;;;;;;1.88;59.11;98023.22;114383;1193;64365;-82
2021/04/05 03:21:23;;;;;;;13.90;7.63;;;;;;;1.73;59.08;98019.63;114377;1193;64439;-81
2021/04/05 03:23:51;;;;;;;18.37;9.00;;;;;;;1.60;59.24;98010.69;114361;1193;65571;-81
2021/04/05 03:26:18;;;;;;;17.13;9.00;;;;;;;1.50;58.95;98001.56;114334;1193;64426;-83
2021/04/05 03:28:45;;;;;;;18.47;9.80;;;;;;;1.40;58.73;97995.06;114333;1193;64321;-82
2021/04/05 03:31:18;;;;;;;21.30;9.20;;;;;;;1.30;58.92;97987.66;114311;1193;64334;-81
2021/04/05 03:33:53;;;;;;;19.13;8.47;;;;;;;1.22;59.61;97970.59;114303;1193;64493;-82
2021/04/05 03:36:21;;;;;;;15.40;8.30;;;;;;;1.11;58.77;97972.91;114378;1193;64429;-82
2021/04/05 03:38:48;;;;;;;20.60;11.20;;;;;;;0.98;59.00;97970.91;114434;1192;64369;-82
2021/04/05 03:41:33;;;;;;;24.63;11.20;;;;;;;0.92;59.52;97952.81;114355;1193;64327;-82
2021/04/05 03:44:18;;;;;;;21.43;9.53;;;;;;;0.84;59.35;97959.40;114342;1193;64442;-83
2021/04/05 03:46:48;;;;;;;18.73;10.20;;;;;;;0.73;59.72;97963.41;114321;1193;64490;-81
2021/04/05 03:49:32;;;;;;;19.35;10.35;;;;;;;0.64;59.70;97952.52;114354;1193;64327;-85
2021/04/05 03:52:14;;;;;;;18.70;9.83;;;;;;;0.60;59.73;97943.92;114285;1193;64432;-81
2021/04/05 03:54:51;;;;;;;24.80;10.00;;;;;;;0.57;59.45;97938.80;114338;1193;64388;-83
2021/04/05 03:57:22;;;;;;;15.77;8.60;;;;;;;0.56;59.55;97942.36;114333;1193;64327;-82
2021/04/05 03:59:53;;;;;;;17.05;9.90;;;;;;;0.58;60.29;97934.43;114289;1193;64471;-81
2021/04/05 04:02:23;;;;;;;17.43;8.93;;;;;;;0.60;59.84;97919.43;114358;1193;64368;-85
2021/04/05 04:05:01;;;;;;;16.63;8.63;;;;;;;0.63;60.49;97921.89;114414;1193;64369;-81
2021/04/05 04:10:11;;;;;;;20.23;9.07;;;;;;;0.81;60.20;97897.31;114338;1193;64439;-82
2021/04/05 04:12:45;;;;;;;21.60;9.00;;;;;;;1.01;60.31;97883.13;114349;1193;64403;-83
2021/04/05 04:15:13;;;;;;;15.10;8.10;;;;;;;1.20;60.38;97883.86;114374;1193;64395;-83
2021/04/05 04:17:43;;;;;;;13.20;6.75;;;;;;;1.42;60.07;97877.48;114290;1193;64366;-82
2021/04/05 04:20:14;;;;;;;17.37;8.10;;;;;;;1.62;59.98;97864.08;114329;1193;64745;-82
2021/04/05 04:22:43;;;;;;;18.60;8.50;;;;;;;1.82;59.82;97855.92;114344;1193;64305;-81
2021/04/05 04:25:10;;;;;;;32.07;9.93;;;;;;;1.97;60.12;97858.63;114362;1193;64426;-81
2021/04/05 04:27:38;;;;;;;22.00;8.90;;;;;;;2.09;59.69;97845.61;114309;1193;64288;-82
2021/04/05 04:30:06;;;;;;;15.20;7.27;;;;;;;2.21;59.58;97830.89;114347;1193;64426;-82
2021/04/05 04:32:33;;;;;;;19.50;7.07;;;;;;;2.37;59.74;97818.54;114333;1193;64359;-81
2021/04/05 04:35:00;;;;;;;15.03;6.57;;;;;;;2.51;59.95;97816.88;114276;1193;64394;-81
2021/04/05 04:37:27;;;;;;;17.55;8.00;;;;;;;2.65;59.95;97807.20;114271;1193;64478;-85
2021/04/05 04:39:56;;;;;;;17.30;6.90;;;;;;;2.77;59.50;97787.16;114308;1193;64409;-80
2021/04/05 04:42:23;;;;;;;13.90;7.45;;;;;;;2.88;59.43;97776.81;114388;1193;64362;-80
2021/04/05 04:44:50;;;;;;;14.25;6.25;;;;;;;2.99;59.40;97776.16;114362;1193;64359;-80
2021/04/05 04:47:18;;;;;;;13.00;6.77;;;;;;;3.12;59.41;97770.97;114345;1193;64403;-81
2021/04/05 04:49:47;;;;;;;16.05;7.85;;;;;;;3.20;59.38;97761.63;114317;1193;64401;-84
2021/04/05 04:52:14;;;;;;;15.63;6.63;;;;;;;3.31;59.25;97768.00;114358;1193;64452;-80
2021/04/05 04:54:41;;;;;;;20.10;7.30;;;;;;;3.42;59.23;97766.38;114312;1193;64378;-81
2021/04/05 04:57:08;;;;;;;17.30;8.00;;;;;;;3.56;59.25;97762.00;114280;1193;64349;-84
2021/04/05 04:59:34;;;;;;;21.00;8.30;;;;;;;3.70;59.24;97762.83;114368;1193;64356;-82
2021/04/05 05:02:01;;;;;;;24.00;8.80;;;;;;;3.80;59.29;97747.22;114343;1193;64289;-82
2021/04/05 05:04:30;;;;;;;21.03;9.83;;;;;;;3.85;59.08;97742.48;114322;1193;64382;-81
2021/04/05 05:07:00;;;;;;;21.45;8.90;;;;;;;3.91;59.46;97730.68;114334;1193;64372;-83
2021/04/05 05:09:28;;;;;;;19.17;8.67;;;;;;;3.97;59.40;97730.27;114264;1193;64305;-82
2021/04/05 05:11:55;;;;;;;12.93;7.10;;;;;;;4.08;59.29;97740.13;114290;1193;64463;-81
2021/04/05 05:14:22;;;;;;;20.65;9.00;;;;;;;4.21;59.55;97725.15;114346;1193;64967;-84
2021/04/05 05:16:53;;;;;;;16.73;7.90;;;;;;;4.36;59.33;97723.25;114258;1193;64369;-82
2021/04/05 05:19:21;;;;;;;17.00;7.75;;;;;;;4.49;59.50;97721.46;114334;1193;64381;-80
2021/04/05 05:21:53;;;;;;;19.27;8.33;;;;;;;4.64;59.72;97711.61;114317;1193;64541;-82
2021/04/05 05:24:22;;;;;;;21.40;8.30;;;;;;;4.81;59.51;97713.94;114352;1192;64359;-85
2021/04/05 05:26:50;;;;;;;20.93;8.37;;;;;;;4.95;59.37;97715.61;114282;1193;64404;-81
2021/04/05 05:29:18;;;;;;;22.50;7.70;;;;;;;5.07;59.75;97710.30;114307;1193;64543;-83
2021/04/05 05:31:46;;;;;;;23.37;8.63;;;;;;;5.20;59.53;97704.97;114316;1193;64465;-81
2021/04/05 05:34:15;;;;;;;20.05;7.40;;;;;;;5.32;58.99;97696.15;114312;1193;64378;-79
2021/04/05 05:36:43;;;;;;;19.27;8.03;;;;;;;5.41;59.13;97689.36;114401;1193;64391;-82
2021/04/05 05:39:12;;;;;;;19.77;7.57;;;;;;;5.51;59.29;97687.71;114278;1193;64381;-81
2021/04/05 05:41:58;;;;;;;13.97;7.67;;;;;;;5.61;59.29;97686.09;114403;1192;64401;-80
2021/04/05 05:44:43;;;;;;;18.40;7.77;;;;;;;5.81;59.31;97678.47;114358;1193;64382;-80
2021/04/05 05:47:28;;;;;;;16.40;7.87;;;;;;;6.02;58.98;97689.28;114342;1193;64369;-80
2021/04/05 05:50:32;;;;;;;14.85;7.05;;;;;;;6.20;59.53;97686.09;114260;1192;64420;-84
2021/04/05 05:53:23;;;;;;;23.50;8.73;;;;;;;6.39;58.70;97676.73;114307;1193;64420;-81
2021/04/05 05:56:05;;;;;;;17.00;8.33;;;;;;;6.50;58.79;97682.05;114299;1193;64372;-79
2021/04/05 05:58:50;;;;;;;18.45;8.30;;;;;;;6.60;58.72;97666.26;114292;1192;64398;-79
2021/04/05 06:01:24;;;;;;;14.70;7.73;;;;;;;6.68;58.22;97659.41;114376;1193;64413;-81
2021/04/05 06:03:58;;;;;;;16.17;8.70;;;;;;;6.76;58.51;97654.34;114346;1193;64362;-82
2021/04/05 06:06:48;;;;;;;18.85;8.60;;;;;;;6.83;58.30;97654.69;114388;1193;64417;-84
2021/04/05 06:09:32;;;;;;;28.20;10.67;;;;;;;6.90;57.85;97660.36;114345;1193;64794;-84
2021/04/05 06:12:06;;;;;;;22.23;9.73;;;;;;;6.98;57.93;97657.92;114363;1193;64291;-79
2021/04/05 06:14:48;;;;;;;26.93;10.67;;;;;;;7.11;57.64;97648.02;114312;1193;64301;-80
2021/04/05 06:17:23;;;;;;;30.30;11.00;;;;;;;7.25;57.64;97638.93;114396;1193;64382;-80
2021/04/05 06:20:04;;;;;;;21.27;9.33;;;;;;;7.36;57.69;97646.03;114307;1192;64506;-79
2021/04/05 06:22:48;;;;;;;23.80;8.75;;;;;;;7.48;57.45;97637.91;114217;1193;64368;-79
2021/04/05 06:25:27;;;;;;;17.47;8.37;;;;;;;7.66;57.59;97635.55;114316;1193;64385;-81
2021/04/05 06:28:32;;;;;;;17.90;8.10;;;;;;;7.82;57.31;97640.42;114498;1193;64455;-78
2021/04/05 06:31:28;;;;;;;17.53;8.50;;;;;;;7.95;57.22;97624.30;114635;1193;64375;-78
2021/04/05 06:33:59;;;;;;;19.30;9.40;;;;;;;8.13;57.20;97628.06;114329;1193;64442;-82
2021/04/05 06:36:43;;;;;;;35.77;18.37;;;;;;;8.25;56.96;97626.18;114340;1193;64478;-78
2021/04/05 06:39:19;;;;;;;53.90;23.73;;;;;;;8.27;57.14;97617.11;114485;1193;64362;-79
2021/04/05 06:41:56;;;;;;;50.07;19.57;;;;;;;8.33;56.91;97610.40;114354;1193;64372;-78
2021/04/05 06:44:29;;;;;;;48.15;17.85;;;;;;;8.43;57.10;97611.34;114325;1193;64436;-79
2021/04/05 06:47:24;;;;;;;21.70;10.70;;;;;;;8.60;57.24;97605.41;114522;1193;64515;-81
2021/04/05 06:50:10;;;;;;;20.07;8.57;;;;;;;8.85;56.33;97604.10;114408;1193;64394;-77
2021/04/05 06:53:14;;;;;;;18.50;7.90;;;;;;;8.98;55.95;97603.02;114308;1192;64416;-84
2021/04/05 06:55:46;;;;;;;21.80;10.53;;;;;;;9.11;56.56;97590.30;114375;1193;64410;-82
2021/04/05 06:58:26;;;;;;;21.53;9.70;;;;;;;9.28;55.21;97594.93;114328;1192;64404;-79
2021/04/05 07:01:18;;;;;;;22.65;9.50;;;;;;;9.31;55.54;97589.34;114314;1193;64304;-84
2021/04/05 07:03:57;;;;;;;19.17;8.50;;;;;;;9.25;55.77;97589.89;114294;1193;64461;-82
2021/04/05 07:06:48;;;;;;;14.30;8.37;;;;;;;9.30;55.99;97570.84;114359;1193;64467;-82
2021/04/05 07:09:51;;;;;;;21.95;7.95;;;;;;;9.17;55.21;97576.44;114361;1193;65143;-85
2021/04/05 07:12:48;;;;;;;21.00;8.70;;;;;;;8.83;54.61;97570.59;114532;1193;64321;-83
2021/04/05 07:15:25;;;;;;;18.00;9.05;;;;;;;8.57;54.89;97568.41;114478;1193;64429;-82
2021/04/05 07:18:22;;;;;;;21.50;8.87;;;;;;;8.38;54.43;97563.01;114281;1193;64375;-83
2021/04/05 07:21:26;;;;;;;38.80;16.20;;;;;;;8.27;55.56;97565.71;114333;1193;64343;-84
2021/04/05 07:24:14;;;;;;;25.37;9.63;;;;;;;8.19;55.35;97562.88;114459;1193;64400;-81
2021/04/05 07:26:54;;;;;;;20.83;10.27;;;;;;;8.17;55.34;97549.72;114340;1193;64458;-86
2021/04/05 07:29:42;;;;;;;21.60;9.60;;;;;;;8.17;55.57;97543.56;114280;1193;64529;-81
2021/04/05 07:32:36;;;;;;;22.40;8.83;;;;;;;8.24;55.62;97544.72;114426;1193;64380;-80
2021/04/05 07:35:32;;;;;;;18.63;8.73;;;;;;;8.29;55.79;97522.07;114369;1193;64398;-80
2021/04/05 07:38:11;;;;;;;18.55;8.50;;;;;;;8.33;56.25;97546.56;114324;1192;64384;-83
2021/04/05 07:40:57;;;;;;;20.57;9.20;;;;;;;8.38;55.39;97537.25;114327;1193;64534;-81
2021/04/05 07:43:30;;;;;;;22.90;9.40;;;;;;;8.47;55.77;97530.30;114389;1193;64445;-84
2021/04/05 07:46:34;;;;;;;18.63;9.77;;;;;;;8.63;55.88;97533.27;114416;1193;64317;-80
2021/04/05 07:49:01;;;;;;;20.37;9.33;;;;;;;8.89;55.23;97522.97;114276;1193;64400;-83
2021/04/05 07:51:40;;;;;;;23.63;9.37;;;;;;;9.09;55.89;97523.00;114313;1192;64352;-85
2021/04/05 07:54:08;;;;;;;26.95;12.55;;;;;;;9.31;55.74;97530.73;114281;1193;64337;-82
2021/04/05 07:56:49;;;;;;;20.90;10.20;;;;;;;9.53;55.84;97534.92;114316;1193;64551;-81
2021/04/05 07:59:34;;;;;;;23.37;9.77;;;;;;;9.67;55.62;97531.86;114333;1193;64331;-82
2021/04/05 08:02:10;;;;;;;30.30;11.10;;;;;;;9.63;54.91;97529.61;114292;1193;64356;-81
2021/04/05 08:04:42;;;;;;;22.70;10.90;;;;;;;9.44;55.39;97533.95;114315;1193;66025;-81
2021/04/05 08:07:32;;;;;;;26.30;11.50;;;;;;;9.33;55.46;97523.44;114297;1193;64372;-81
2021/04/05 08:10:22;;;;;;;29.30;11.00;;;;;;;9.26;55.18;97527.64;114121;1193;64410;-81
2021/04/05 08:13:14;;;;;;;30.00;13.00;;;;;;;9.18;55.63;97519.52;114213;1193;64410;-79
2021/04/05 08:15:57;;;;;;;23.90;12.00;;;;;;;9.11;55.16;97518.39;114338;1193;64350;-83
2021/04/05 08:18:56;;;;;;;24.20;12.40;;;;;;;9.00;54.67;97521.17;114360;1193;64355;-85
2021/04/05 08:21:30;;;;;;;22.90;11.50;;;;;;;8.85;55.27;97518.92;114273;1193;64448;-83
2021/04/05 08:24:16;;;;;;;25.47;11.43;;;;;;;8.85;55.28;97518.92;114526;1193;64513;-81
2021/04/05 08:26:59;;;;;;;26.75;12.65;;;;;;;8.88;55.29;97507.98;114339;1192;64819;-80
2021/04/05 08:29:32;;;;;;;30.90;12.03;;;;;;;8.94;55.44;97496.78;114249;1193;64350;-79
2021/04/05 08:32:36;;;;;;;25.80;12.37;;;;;;;9.01;55.29;97478.42;114284;1193;64398;-80
2021/04/05 08:35:03;;;;;;;24.53;10.83;;;;;;;8.99;55.18;97467.09;114243;1193;64394;-82
2021/04/05 08:38:24;;;;;;;22.87;10.77;;;;;;;8.97;55.79;97468.19;114255;1193;64368;-78
2021/04/05 08:41:12;;;;;;;25.35;10.95;;;;;;;9.06;55.00;97478.86;114069;1196;64426;-79
2021/04/05 08:43:43;;;;;;;21.87;11.40;;;;;;;9.01;55.64;97474.92;114027;1196;64516;-79
2021/04/05 08:46:21;;;;;;;26.07;11.93;;;;;;;8.99;54.97;97456.44;113975;1196;64334;-78
2021/04/05 08:48:57;;;;;;;30.67;13.23;;;;;;;8.93;55.63;97457.83;114025;1196;64439;-81
2021/04/05 08:51:30;;;;;;;28.85;13.90;;;;;;;9.03;56.12;97451.66;114067;1196;64448;-80
2021/04/05 08:54:01;;;;;;;26.85;12.15;;;;;;;9.19;56.12;97449.28;114019;1196;64468;-80
2021/04/05 08:56:42;;;;;;;25.45;11.90;;;;;;;9.34;55.49;97436.36;113840;1199;64404;-81
2021/04/05 08:59:18;;;;;;;26.50;10.95;;;;;;;9.42;55.44;97432.02;114101;1197;64407;-81
2021/04/05 09:01:56;;;;;;;24.75;12.15;;;;;;;9.59;55.77;97414.44;114127;1196;64534;-83
2021/04/05 09:04:26;;;;;;;27.87;13.30;;;;;;;9.64;55.43;97414.01;114086;1196;64603;-80
2021/04/05 09:07:14;;;;;;;28.63;13.13;;;;;;;9.69;55.43;97404.59;113937;1196;64308;-79
2021/04/05 09:09:44;;;;;;;30.20;13.10;;;;;;;9.73;55.09;97408.66;114092;1197;64371;-78
2021/04/05 09:12:12;;;;;;;26.17;12.13;;;;;;;9.74;55.12;97405.01;114011;1197;64381;-78
2021/04/05 09:15:16;;;;;;;29.87;14.17;;;;;;;9.83;53.95;97399.78;113959;1193;64433;-82
2021/04/05 09:17:59;;;;;;;25.30;13.30;;;;;;;9.79;54.40;97401.05;114109;1200;64412;-80
2021/04/05 09:20:36;;;;;;;32.10;14.55;;;;;;;9.98;54.57;97396.47;114085;1196;64487;-80
2021/04/05 09:23:42;;;;;;;23.50;12.50;;;;;;;10.22;54.50;97389.77;114102;1200;64391;-80
2021/04/05 09:26:34;;;;;;;23.80;12.10;;;;;;;10.49;54.77;97384.42;113947;1200;64266;-80
2021/04/05 09:29:18;;;;;;;31.10;13.50;;;;;;;10.62;53.80;97378.72;114103;1196;64605;-80
2021/04/05 09:31:53;;;;;;;26.20;13.35;;;;;;;10.60;53.92;97371.86;113820;1198;64641;-80
2021/04/05 09:34:58;;;;;;;24.30;11.70;;;;;;;10.72;53.99;97358.14;113841;1200;64417;-81
2021/04/05 09:37:59;;;;;;;23.45;13.05;;;;;;;10.89;53.98;97361.80;114141;1199;64564;-81
2021/04/05 09:40:41;;;;;;;25.75;12.00;;;;;;;11.09;54.59;97355.28;114037;1196;64548;-80
2021/04/05 09:43:51;;;;;;;24.77;12.10;;;;;;;11.46;52.92;97361.40;113932;1196;64420;-78
2021/04/05 09:46:36;;;;;;;23.05;10.35;;;;;;;11.67;53.33;97356.50;114054;1199;64398;-79
2021/04/05 09:49:41;;;;;;;21.63;11.20;;;;;;;11.81;53.10;97352.42;114194;1196;64494;-76
2021/04/05 09:52:18;;;;;;;20.50;9.95;;;;;;;12.24;53.20;97334.54;114227;1197;64331;-79
2021/04/05 09:54:51;;;;;;;26.73;10.77;;;;;;;12.53;52.90;97329.57;114201;1193;64362;-82
2021/04/05 09:57:43;;;;;;;24.10;11.53;;;;;;;12.69;53.40;97323.41;114311;1193;64436;-80
2021/04/05 10:00:16;;;;;;;20.30;10.00;;;;;;;12.90;52.78;97309.52;114351;1193;64458;-78
2021/04/05 10:02:51;;;;;;;21.00;11.30;;;;;;;12.95;52.48;97316.05;114270;1193;64365;-83
2021/04/05 10:05:20;;;;;;;25.63;10.83;;;;;;;12.91;52.51;97321.91;114367;1193;64461;-77
2021/04/05 10:07:49;;;;;;;28.70;15.03;;;;;;;13.04;51.49;97313.36;114314;1192;64478;-79
2021/04/05 10:10:17;;;;;;;19.55;10.00;;;;;;;13.21;51.77;97313.22;114249;1193;64419;-79
2021/04/05 10:12:46;;;;;;;23.15;11.30;;;;;;;13.37;52.96;97300.81;114281;1193;64391;-80
2021/04/05 10:15:17;;;;;;;20.47;9.40;;;;;;;13.84;53.16;97305.36;114367;1193;64423;-79
2021/04/05 10:17:51;;;;;;;23.53;9.90;;;;;;;14.08;52.50;97310.63;114255;1193;64478;-76
2021/04/05 10:20:25;;;;;;;24.10;11.10;;;;;;;14.21;52.29;97310.89;114223;1193;64417;-77
2021/04/05 10:22:53;;;;;;;21.25;10.50;;;;;;;14.34;53.45;97295.04;114308;1193;64324;-78
2021/04/05 10:25:23;;;;;;;20.30;9.53;;;;;;;14.69;52.01;97290.13;114261;1193;64332;-78
2021/04/05 10:28:00;;;;;;;22.03;9.30;;;;;;;14.94;50.92;97284.56;114308;1193;64430;-77
2021/04/05 10:30:33;;;;;;;19.60;9.33;;;;;;;15.11;52.81;97286.09;114265;1193;64410;-80
2021/04/05 10:33:15;;;;;;;19.70;10.27;;;;;;;15.07;52.08;97292.84;114248;1193;64349;-78
2021/04/05 10:35:47;;;;;;;18.50;8.55;;;;;;;15.01;51.71;97280.13;114340;1193;64372;-78
2021/04/05 10:38:18;;;;;;;17.80;9.13;;;;;;;14.67;50.65;97273.36;114343;1193;64429;-78
2021/04/05 10:40:49;;;;;;;18.33;9.10;;;;;;;14.37;51.69;97277.72;114356;1193;64378;-79
2021/04/05 10:43:27;;;;;;;16.67;8.40;;;;;;;14.37;50.84;97260.78;114261;1193;64378;-78
2021/04/05 10:45:58;;;;;;;17.45;8.70;;;;;;;14.23;50.81;97271.27;114339;1193;64204;-78
2021/04/05 10:48:43;;;;;;;20.07;8.20;;;;;;;14.38;51.24;97260.63;114267;1193;64407;-83
2021/04/05 10:51:27;;;;;;;13.08;7.18;;;;;;;14.54;51.41;97257.00;114319;1193;64458;-80
2021/04/05 10:54:06;;;;;;;14.00;7.90;;;;;;;14.81;51.83;97256.44;114381;1193;64446;-77
2021/04/05 10:56:37;;;;;;;16.53;8.37;;;;;;;14.93;51.05;97253.33;114287;1193;64365;-77
2021/04/05 10:59:10;;;;;;;14.53;8.43;;;;;;;15.00;49.86;97232.77;114289;1193;64381;-80
2021/04/05 11:01:44;;;;;;;14.60;7.67;;;;;;;14.92;50.60;97243.60;114362;1193;64494;-85
2021/04/05 11:04:14;;;;;;;16.40;8.45;;;;;;;14.74;50.40;97241.23;114310;1193;64343;-80
2021/04/05 11:06:41;;;;;;;17.50;8.60;;;;;;;14.82;51.46;97239.33;114348;1193;64381;-80
2021/04/05 11:09:09;;;;;;;13.80;7.83;;;;;;;14.80;50.38;97230.59;114320;1193;64337;-83
2021/04/05 11:11:40;;;;;;;17.05;7.85;;;;;;;14.71;51.18;97220.95;114366;1193;64324;-80
2021/04/05 11:14:16;;;;;;;17.97;7.90;;;;;;;14.71;51.07;97220.11;114372;1193;64471;-79
2021/04/05 11:17:10;;;;;;;15.30;7.80;;;;;;;14.64;49.23;97208.42;114468;1192;64487;-79
2021/04/05 11:19:48;;;;;;;16.20;7.60;;;;;;;14.44;50.66;97202.66;114604;1193;64324;-84
2021/04/05 11:22:18;;;;;;;15.00;8.30;;;;;;;14.43;50.25;97200.98;114090;1193;64330;-78
2021/04/05 11:24:53;;;;;;;19.03;10.13;;;;;;;14.49;51.04;97190.39;114288;1191;64343;-83
2021/04/05 11:27:26;;;;;;;19.03;9.43;;;;;;;14.56;50.89;97187.81;114271;1193;64554;-83
2021/04/05 11:29:57;;;;;;;16.37;8.30;;;;;;;14.55;50.68;97184.30;114368;1193;64471;-79
2021/04/05 11:32:27;;;;;;;27.27;10.27;;;;;;;14.75;50.53;97168.50;114264;1193;64400;-80
2021/04/05 11:35:03;;;;;;;17.07;9.37;;;;;;;14.91;51.06;97180.95;114378;1192;64359;-82
2021/04/05 11:37:32;;;;;;;;;;;;;;;14.89;47.24;97193.75;114307;1201;64524;-81
2021/04/05 11:40:12;;;;;;;17.97;7.83;;;;;;;14.66;48.03;97177.66;114326;1193;64462;-83
2021/04/05 11:42:50;;;;;;;16.00;6.90;;;;;;;14.60;48.68;97175.70;114104;1193;64851;-81
2021/04/05 11:45:21;;;;;;;11.53;5.27;;;;;;;14.57;46.57;97184.97;114376;1193;64372;-87
2021/04/05 11:47:53;;;;;;;14.90;5.40;;;;;;;14.29;46.03;97194.55;114357;1193;64292;-80
2021/04/05 11:50:25;;;;;;;9.93;4.40;;;;;;;14.03;45.21;97178.80;114305;1193;64372;-81
2021/04/05 11:53:05;;;;;;;9.40;4.20;;;;;;;13.75;45.93;97173.11;114394;1193;64398;-79
2021/04/05 11:55:36;;;;;;;12.47;5.33;;;;;;;13.63;46.70;97185.24;114473;1193;64448;-79
2021/04/05 11:58:14;;;;;;;13.95;5.50;;;;;;;13.48;46.72;97174.39;114287;1192;64400;-82
2021/04/05 12:00:45;;;;;;;11.47;4.87;;;;;;;13.30;46.50;97171.15;114260;1193;64366;-80
2021/04/05 12:03:42;;;;;;;12.15;5.25;;;;;;;13.31;48.11;97148.69;114333;1193;64410;-80